sensor_id;sensor_type;location;lat;lon;timestamp;temperature;humidity
46159;DHT22;31888;44.512;26.104;2023-08-08T00:00:34;20.70;99.90
46159;DHT22;31888;44.512;26.104;2023-08-08T00:02:58;20.50;99.90
46159;DHT22;31888;44.512;26.104;2023-08-08T00:05:22;20.40;99.90
46159;DHT22;31888;44.512;26.104;2023-08-08T00:07:48;20.30;99.90
46159;DHT22;31888;44.512;26.104;2023-08-08T00:10:12;20.30;99.90
46159;DHT22;31888;44.512;26.104;2023-08-08T00:12:36;20.20;99.90
46159;DHT22;31888;44.512;26.104;2023-08-08T00:15:00;20.10;99.90
46159;DHT22;31888;44.512;26.104;2023-08-08T00:17:24;20.10;99.90
46159;DHT22;31888;44.512;26.104;2023-08-08T00:19:48;20.00;99.90
46159;DHT22;31888;44.512;26.104;2023-08-08T00:22:12;19.80;99.90
46159;DHT22;31888;44.512;26.104;2023-08-08T00:24:38;19.80;99.90
46159;DHT22;31888;44.512;26.104;2023-08-08T00:27:02;19.80;99.90
46159;DHT22;31888;44.512;26.104;2023-08-08T00:29:26;19.80;99.90
46159;DHT22;31888;44.512;26.104;2023-08-08T00:31:50;19.70;99.90
46159;DHT22;31888;44.512;26.104;2023-08-08T00:34:14;19.70;99.90
46159;DHT22;31888;44.512;26.104;2023-08-08T00:36:38;19.60;99.90
46159;DHT22;31888;44.512;26.104;2023-08-08T00:39:02;19.50;99.90
46159;DHT22;31888;44.512;26.104;2023-08-08T00:41:28;19.50;99.90
46159;DHT22;31888;44.512;26.104;2023-08-08T00:43:51;19.50;99.90
46159;DHT22;31888;44.512;26.104;2023-08-08T00:46:17;19.40;99.90
46159;DHT22;31888;44.512;26.104;2023-08-08T00:48:44;19.40;99.90
46159;DHT22;31888;44.512;26.104;2023-08-08T00:51:09;19.30;99.90
46159;DHT22;31888;44.512;26.104;2023-08-08T00:53:33;19.40;99.90
46159;DHT22;31888;44.512;26.104;2023-08-08T00:55:58;19.40;99.90
46159;DHT22;31888;44.512;26.104;2023-08-08T00:58:24;19.50;99.90
46159;DHT22;31888;44.512;26.104;2023-08-08T01:00:48;19.40;99.90
46159;DHT22;31888;44.512;26.104;2023-08-08T01:03:12;19.40;99.90
46159;DHT22;31888;44.512;26.104;2023-08-08T01:05:42;19.40;99.90
46159;DHT22;31888;44.512;26.104;2023-08-08T01:08:07;19.30;99.90
46159;DHT22;31888;44.512;26.104;2023-08-08T01:10:36;19.30;99.90
46159;DHT22;31888;44.512;26.104;2023-08-08T01:13:04;19.40;99.90
46159;DHT22;31888;44.512;26.104;2023-08-08T01:15:30;19.50;99.90
46159;DHT22;31888;44.512;26.104;2023-08-08T01:17:58;19.50;99.90
46159;DHT22;31888;44.512;26.104;2023-08-08T01:20:24;19.50;99.90
46159;DHT22;31888;44.512;26.104;2023-08-08T01:23:02;19.50;99.90
46159;DHT22;31888;44.512;26.104;2023-08-08T01:25:29;19.60;99.90
46159;DHT22;31888;44.512;26.104;2023-08-08T01:27:53;19.70;99.90
46159;DHT22;31888;44.512;26.104;2023-08-08T01:30:18;19.70;99.90
46159;DHT22;31888;44.512;26.104;2023-08-08T01:32:42;19.80;99.90
46159;DHT22;31888;44.512;26.104;2023-08-08T01:35:07;19.80;99.90
46159;DHT22;31888;44.512;26.104;2023-08-08T01:37:36;19.70;99.90
46159;DHT22;31888;44.512;26.104;2023-08-08T01:40:01;19.80;99.90
46159;DHT22;31888;44.512;26.104;2023-08-08T01:42:27;19.80;99.90
46159;DHT22;31888;44.512;26.104;2023-08-08T01:44:53;19.80;99.90
46159;DHT22;31888;44.512;26.104;2023-08-08T01:47:18;19.80;99.90
46159;DHT22;31888;44.512;26.104;2023-08-08T01:49:42;19.80;99.90
46159;DHT22;31888;44.512;26.104;2023-08-08T01:52:06;19.80;99.90
46159;DHT22;31888;44.512;26.104;2023-08-08T01:54:30;19.90;99.90
46159;DHT22;31888;44.512;26.104;2023-08-08T01:56:54;19.90;99.90
46159;DHT22;31888;44.512;26.104;2023-08-08T01:59:19;19.80;99.90
46159;DHT22;31888;44.512;26.104;2023-08-08T02:01:43;19.80;99.90
46159;DHT22;31888;44.512;26.104;2023-08-08T02:04:08;19.80;99.90
46159;DHT22;31888;44.512;26.104;2023-08-08T02:06:32;19.80;99.90
46159;DHT22;31888;44.512;26.104;2023-08-08T02:08:55;19.80;99.90
46159;DHT22;31888;44.512;26.104;2023-08-08T02:11:19;19.80;99.90
46159;DHT22;31888;44.512;26.104;2023-08-08T02:13:44;19.70;99.90
46159;DHT22;31888;44.512;26.104;2023-08-08T02:16:09;19.70;99.90
46159;DHT22;31888;44.512;26.104;2023-08-08T02:18:33;19.70;99.90
46159;DHT22;31888;44.512;26.104;2023-08-08T02:20:58;19.60;99.90
46159;DHT22;31888;44.512;26.104;2023-08-08T02:23:22;19.60;99.90
46159;DHT22;31888;44.512;26.104;2023-08-08T02:25:46;19.60;99.90
46159;DHT22;31888;44.512;26.104;2023-08-08T02:28:11;19.60;99.90
46159;DHT22;31888;44.512;26.104;2023-08-08T02:30:34;19.60;99.90
46159;DHT22;31888;44.512;26.104;2023-08-08T02:33:01;19.50;99.90
46159;DHT22;31888;44.512;26.104;2023-08-08T02:35:25;19.40;99.90
46159;DHT22;31888;44.512;26.104;2023-08-08T02:37:49;19.40;99.90
46159;DHT22;31888;44.512;26.104;2023-08-08T02:40:13;19.30;99.90
46159;DHT22;31888;44.512;26.104;2023-08-08T02:42:37;19.30;99.90
46159;DHT22;31888;44.512;26.104;2023-08-08T02:45:02;19.30;99.90
46159;DHT22;31888;44.512;26.104;2023-08-08T02:47:26;19.10;99.90
46159;DHT22;31888;44.512;26.104;2023-08-08T02:49:52;19.10;99.90
46159;DHT22;31888;44.512;26.104;2023-08-08T02:52:16;19.10;99.90
46159;DHT22;31888;44.512;26.104;2023-08-08T02:54:40;19.10;99.90
46159;DHT22;31888;44.512;26.104;2023-08-08T02:57:04;19.10;99.90
46159;DHT22;31888;44.512;26.104;2023-08-08T02:59:28;19.10;99.90
46159;DHT22;31888;44.512;26.104;2023-08-08T03:01:55;19.10;99.90
46159;DHT22;31888;44.512;26.104;2023-08-08T03:04:20;19.10;99.90
46159;DHT22;31888;44.512;26.104;2023-08-08T03:06:46;19.00;99.90
46159;DHT22;31888;44.512;26.104;2023-08-08T03:09:10;18.90;99.90
46159;DHT22;31888;44.512;26.104;2023-08-08T03:11:34;18.80;99.90
46159;DHT22;31888;44.512;26.104;2023-08-08T03:14:02;18.70;99.90
46159;DHT22;31888;44.512;26.104;2023-08-08T03:16:28;18.80;99.90
46159;DHT22;31888;44.512;26.104;2023-08-08T03:18:52;18.80;99.90
46159;DHT22;31888;44.512;26.104;2023-08-08T03:21:17;18.90;99.90
46159;DHT22;31888;44.512;26.104;2023-08-08T03:23:44;18.90;99.90
46159;DHT22;31888;44.512;26.104;2023-08-08T03:26:08;18.90;99.90
46159;DHT22;31888;44.512;26.104;2023-08-08T03:28:32;18.90;99.90
46159;DHT22;31888;44.512;26.104;2023-08-08T03:30:56;18.70;99.90
46159;DHT22;31888;44.512;26.104;2023-08-08T03:33:22;18.70;99.90
46159;DHT22;31888;44.512;26.104;2023-08-08T03:35:46;18.60;99.90
46159;DHT22;31888;44.512;26.104;2023-08-08T03:38:11;18.70;99.90
46159;DHT22;31888;44.512;26.104;2023-08-08T03:40:37;18.80;99.90
46159;DHT22;31888;44.512;26.104;2023-08-08T03:43:01;18.70;99.90
46159;DHT22;31888;44.512;26.104;2023-08-08T03:45:25;18.80;99.90
46159;DHT22;31888;44.512;26.104;2023-08-08T03:47:49;18.80;99.90
46159;DHT22;31888;44.512;26.104;2023-08-08T03:50:13;18.80;99.90
46159;DHT22;31888;44.512;26.104;2023-08-08T03:52:37;18.70;99.90
46159;DHT22;31888;44.512;26.104;2023-08-08T03:55:05;18.80;99.90
46159;DHT22;31888;44.512;26.104;2023-08-08T03:57:31;18.80;99.90
46159;DHT22;31888;44.512;26.104;2023-08-08T03:59:54;18.90;99.90
46159;DHT22;31888;44.512;26.104;2023-08-08T04:02:18;18.90;99.90
46159;DHT22;31888;44.512;26.104;2023-08-08T04:04:42;19.00;99.90
46159;DHT22;31888;44.512;26.104;2023-08-08T04:07:07;19.00;99.90
46159;DHT22;31888;44.512;26.104;2023-08-08T04:09:31;19.00;99.90
46159;DHT22;31888;44.512;26.104;2023-08-08T04:11:55;19.00;99.90
46159;DHT22;31888;44.512;26.104;2023-08-08T04:14:21;19.00;99.90
46159;DHT22;31888;44.512;26.104;2023-08-08T04:16:45;19.00;99.90
46159;DHT22;31888;44.512;26.104;2023-08-08T04:19:09;19.00;99.90
46159;DHT22;31888;44.512;26.104;2023-08-08T04:21:33;19.00;99.90
46159;DHT22;31888;44.512;26.104;2023-08-08T04:23:57;19.00;99.90
46159;DHT22;31888;44.512;26.104;2023-08-08T04:26:21;19.00;99.90
46159;DHT22;31888;44.512;26.104;2023-08-08T04:28:45;19.00;99.90
46159;DHT22;31888;44.512;26.104;2023-08-08T04:31:10;19.00;99.90
46159;DHT22;31888;44.512;26.104;2023-08-08T04:33:34;19.00;99.90
46159;DHT22;31888;44.512;26.104;2023-08-08T04:35:58;18.90;99.90
46159;DHT22;31888;44.512;26.104;2023-08-08T04:38:22;19.00;99.90
46159;DHT22;31888;44.512;26.104;2023-08-08T04:40:46;19.00;99.90
46159;DHT22;31888;44.512;26.104;2023-08-08T04:43:10;19.10;99.90
46159;DHT22;31888;44.512;26.104;2023-08-08T04:45:34;19.20;99.90
46159;DHT22;31888;44.512;26.104;2023-08-08T04:47:59;19.10;99.90
46159;DHT22;31888;44.512;26.104;2023-08-08T04:50:23;19.10;99.90
46159;DHT22;31888;44.512;26.104;2023-08-08T04:52:47;19.10;99.90
46159;DHT22;31888;44.512;26.104;2023-08-08T04:55:11;19.10;99.90
46159;DHT22;31888;44.512;26.104;2023-08-08T04:57:34;19.10;99.90
46159;DHT22;31888;44.512;26.104;2023-08-08T04:59:59;19.20;99.90
46159;DHT22;31888;44.512;26.104;2023-08-08T05:02:27;19.20;99.90
46159;DHT22;31888;44.512;26.104;2023-08-08T05:04:52;19.20;99.90
46159;DHT22;31888;44.512;26.104;2023-08-08T05:07:16;19.30;99.90
46159;DHT22;31888;44.512;26.104;2023-08-08T05:09:40;19.30;99.90
46159;DHT22;31888;44.512;26.104;2023-08-08T05:12:04;19.40;99.90
46159;DHT22;31888;44.512;26.104;2023-08-08T05:14:28;19.40;99.90
46159;DHT22;31888;44.512;26.104;2023-08-08T05:16:52;19.40;99.90
46159;DHT22;31888;44.512;26.104;2023-08-08T05:19:16;19.40;99.90
46159;DHT22;31888;44.512;26.104;2023-08-08T05:21:41;19.40;99.90
46159;DHT22;31888;44.512;26.104;2023-08-08T05:24:05;19.40;99.90
46159;DHT22;31888;44.512;26.104;2023-08-08T05:26:30;19.30;99.90
46159;DHT22;31888;44.512;26.104;2023-08-08T05:28:53;19.30;99.90
46159;DHT22;31888;44.512;26.104;2023-08-08T05:31:17;19.20;99.90
46159;DHT22;31888;44.512;26.104;2023-08-08T05:33:41;19.10;99.90
46159;DHT22;31888;44.512;26.104;2023-08-08T05:36:05;19.10;99.90
46159;DHT22;31888;44.512;26.104;2023-08-08T05:38:30;19.00;99.90
46159;DHT22;31888;44.512;26.104;2023-08-08T05:40:54;19.00;99.90
46159;DHT22;31888;44.512;26.104;2023-08-08T05:43:18;19.00;99.90
46159;DHT22;31888;44.512;26.104;2023-08-08T05:45:44;19.00;99.90
46159;DHT22;31888;44.512;26.104;2023-08-08T05:48:08;19.00;99.90
46159;DHT22;31888;44.512;26.104;2023-08-08T05:50:34;19.10;99.90
46159;DHT22;31888;44.512;26.104;2023-08-08T05:52:59;19.00;99.90
46159;DHT22;31888;44.512;26.104;2023-08-08T05:55:24;19.00;99.90
46159;DHT22;31888;44.512;26.104;2023-08-08T05:57:48;19.10;99.90
46159;DHT22;31888;44.512;26.104;2023-08-08T06:00:13;19.10;99.90
46159;DHT22;31888;44.512;26.104;2023-08-08T06:02:37;19.20;99.90
46159;DHT22;31888;44.512;26.104;2023-08-08T06:05:01;19.30;99.90
46159;DHT22;31888;44.512;26.104;2023-08-08T06:07:25;19.30;99.90
46159;DHT22;31888;44.512;26.104;2023-08-08T06:09:49;19.40;99.90
46159;DHT22;31888;44.512;26.104;2023-08-08T06:12:14;19.40;99.90
46159;DHT22;31888;44.512;26.104;2023-08-08T06:14:38;19.50;99.90
46159;DHT22;31888;44.512;26.104;2023-08-08T06:17:02;19.40;99.90
46159;DHT22;31888;44.512;26.104;2023-08-08T06:19:26;19.60;99.90
46159;DHT22;31888;44.512;26.104;2023-08-08T06:21:50;19.70;99.90
46159;DHT22;31888;44.512;26.104;2023-08-08T06:24:14;19.80;99.90
46159;DHT22;31888;44.512;26.104;2023-08-08T06:26:38;19.90;99.90
46159;DHT22;31888;44.512;26.104;2023-08-08T06:29:03;19.70;99.90
46159;DHT22;31888;44.512;26.104;2023-08-08T06:31:27;19.40;99.90
46159;DHT22;31888;44.512;26.104;2023-08-08T06:33:51;19.50;99.90
46159;DHT22;31888;44.512;26.104;2023-08-08T06:36:16;19.60;99.90
46159;DHT22;31888;44.512;26.104;2023-08-08T06:38:39;19.50;99.90
46159;DHT22;31888;44.512;26.104;2023-08-08T06:41:05;19.60;99.90
46159;DHT22;31888;44.512;26.104;2023-08-08T06:43:29;19.70;99.90
46159;DHT22;31888;44.512;26.104;2023-08-08T06:45:55;19.80;99.90
46159;DHT22;31888;44.512;26.104;2023-08-08T06:48:20;19.80;99.90
46159;DHT22;31888;44.512;26.104;2023-08-08T06:50:44;19.80;99.90
46159;DHT22;31888;44.512;26.104;2023-08-08T06:53:07;19.80;99.90
46159;DHT22;31888;44.512;26.104;2023-08-08T06:55:31;19.70;99.90
46159;DHT22;31888;44.512;26.104;2023-08-08T06:57:55;19.70;99.90
46159;DHT22;31888;44.512;26.104;2023-08-08T07:00:19;19.70;99.90
46159;DHT22;31888;44.512;26.104;2023-08-08T07:02:45;19.70;99.90
46159;DHT22;31888;44.512;26.104;2023-08-08T07:05:09;19.60;99.90
46159;DHT22;31888;44.512;26.104;2023-08-08T07:07:33;19.60;99.90
46159;DHT22;31888;44.512;26.104;2023-08-08T07:09:58;19.50;99.90
46159;DHT22;31888;44.512;26.104;2023-08-08T07:12:22;19.60;99.90
46159;DHT22;31888;44.512;26.104;2023-08-08T07:14:46;19.40;99.90
46159;DHT22;31888;44.512;26.104;2023-08-08T07:17:09;19.30;99.90
46159;DHT22;31888;44.512;26.104;2023-08-08T07:19:35;19.40;99.90
46159;DHT22;31888;44.512;26.104;2023-08-08T07:21:59;19.40;99.90
46159;DHT22;31888;44.512;26.104;2023-08-08T07:24:24;19.40;99.90
46159;DHT22;31888;44.512;26.104;2023-08-08T07:26:50;19.40;99.90
46159;DHT22;31888;44.512;26.104;2023-08-08T07:29:14;19.40;99.90
46159;DHT22;31888;44.512;26.104;2023-08-08T07:31:39;19.40;99.90
46159;DHT22;31888;44.512;26.104;2023-08-08T07:34:03;19.40;99.90
46159;DHT22;31888;44.512;26.104;2023-08-08T07:36:28;19.40;99.90
46159;DHT22;31888;44.512;26.104;2023-08-08T07:38:52;19.40;99.90
46159;DHT22;31888;44.512;26.104;2023-08-08T07:41:19;19.50;99.90
46159;DHT22;31888;44.512;26.104;2023-08-08T07:43:43;19.50;99.90
46159;DHT22;31888;44.512;26.104;2023-08-08T07:46:06;19.50;99.90
46159;DHT22;31888;44.512;26.104;2023-08-08T07:48:31;19.60;99.90
46159;DHT22;31888;44.512;26.104;2023-08-08T07:50:55;19.60;99.90
46159;DHT22;31888;44.512;26.104;2023-08-08T07:53:20;19.70;99.90
46159;DHT22;31888;44.512;26.104;2023-08-08T07:55:44;19.70;99.90
46159;DHT22;31888;44.512;26.104;2023-08-08T07:58:07;19.70;99.90
46159;DHT22;31888;44.512;26.104;2023-08-08T08:00:31;19.90;99.90
46159;DHT22;31888;44.512;26.104;2023-08-08T08:02:55;20.20;99.90
46159;DHT22;31888;44.512;26.104;2023-08-08T08:05:19;20.50;99.90
46159;DHT22;31888;44.512;26.104;2023-08-08T08:07:43;20.90;99.90
46159;DHT22;31888;44.512;26.104;2023-08-08T08:10:10;21.20;99.90
46159;DHT22;31888;44.512;26.104;2023-08-08T08:12:36;21.20;99.90
46159;DHT22;31888;44.512;26.104;2023-08-08T08:14:59;21.70;99.90
46159;DHT22;31888;44.512;26.104;2023-08-08T08:17:23;23.10;99.90
46159;DHT22;31888;44.512;26.104;2023-08-08T08:19:47;23.50;98.60
46159;DHT22;31888;44.512;26.104;2023-08-08T08:22:11;24.20;98.20
46159;DHT22;31888;44.512;26.104;2023-08-08T08:24:34;24.50;96.90
46159;DHT22;31888;44.512;26.104;2023-08-08T08:27:00;25.20;96.30
46159;DHT22;31888;44.512;26.104;2023-08-08T08:29:24;25.40;95.20
46159;DHT22;31888;44.512;26.104;2023-08-08T08:31:47;25.30;95.50
46159;DHT22;31888;44.512;26.104;2023-08-08T08:34:11;25.70;94.80
46159;DHT22;31888;44.512;26.104;2023-08-08T08:36:35;25.50;94.30
46159;DHT22;31888;44.512;26.104;2023-08-08T08:38:59;25.60;94.10
46159;DHT22;31888;44.512;26.104;2023-08-08T08:41:25;25.50;94.10
46159;DHT22;31888;44.512;26.104;2023-08-08T08:43:51;24.80;94.80
46159;DHT22;31888;44.512;26.104;2023-08-08T08:46:18;25.20;95.20
46159;DHT22;31888;44.512;26.104;2023-08-08T08:48:43;25.40;94.50
46159;DHT22;31888;44.512;26.104;2023-08-08T08:51:08;25.60;94.20
46159;DHT22;31888;44.512;26.104;2023-08-08T08:53:33;25.70;93.60
46159;DHT22;31888;44.512;26.104;2023-08-08T08:56:02;25.80;93.30
46159;DHT22;31888;44.512;26.104;2023-08-08T08:58:26;25.80;93.30
46159;DHT22;31888;44.512;26.104;2023-08-08T09:00:53;25.90;93.20
46159;DHT22;31888;44.512;26.104;2023-08-08T09:03:17;25.70;93.30
46159;DHT22;31888;44.512;26.104;2023-08-08T09:05:42;25.50;93.70
46159;DHT22;31888;44.512;26.104;2023-08-08T09:08:07;25.50;93.50
46159;DHT22;31888;44.512;26.104;2023-08-08T09:10:32;25.40;93.40
46159;DHT22;31888;44.512;26.104;2023-08-08T09:12:57;25.10;93.80
46159;DHT22;31888;44.512;26.104;2023-08-08T09:15:21;24.90;94.10
46159;DHT22;31888;44.512;26.104;2023-08-08T09:17:46;24.40;95.10
46159;DHT22;31888;44.512;26.104;2023-08-08T09:20:11;24.20;95.10
46159;DHT22;31888;44.512;26.104;2023-08-08T09:22:36;23.70;95.50
46159;DHT22;31888;44.512;26.104;2023-08-08T09:25:01;23.70;95.90
46159;DHT22;31888;44.512;26.104;2023-08-08T09:27:28;23.50;96.70
46159;DHT22;31888;44.512;26.104;2023-08-08T09:29:52;23.30;97.30
46159;DHT22;31888;44.512;26.104;2023-08-08T09:32:17;23.30;97.60
46159;DHT22;31888;44.512;26.104;2023-08-08T09:34:42;22.80;98.00
46159;DHT22;31888;44.512;26.104;2023-08-08T09:37:06;22.80;98.30
46159;DHT22;31888;44.512;26.104;2023-08-08T09:39:30;22.90;98.60
46159;DHT22;31888;44.512;26.104;2023-08-08T09:41:55;23.20;98.10
46159;DHT22;31888;44.512;26.104;2023-08-08T09:44:23;23.30;97.90
46159;DHT22;31888;44.512;26.104;2023-08-08T09:46:48;23.70;97.90
46159;DHT22;31888;44.512;26.104;2023-08-08T09:49:14;24.00;97.30
46159;DHT22;31888;44.512;26.104;2023-08-08T09:51:39;24.10;96.80
46159;DHT22;31888;44.512;26.104;2023-08-08T09:54:04;24.00;96.30
46159;DHT22;31888;44.512;26.104;2023-08-08T09:56:29;23.60;96.20
46159;DHT22;31888;44.512;26.104;2023-08-08T09:58:53;22.90;97.00
46159;DHT22;31888;44.512;26.104;2023-08-08T10:01:19;22.20;98.30
46159;DHT22;31888;44.512;26.104;2023-08-08T10:03:44;21.70;99.10
46159;DHT22;31888;44.512;26.104;2023-08-08T10:06:09;21.60;99.30
46159;DHT22;31888;44.512;26.104;2023-08-08T10:08:35;21.50;99.60
46159;DHT22;31888;44.512;26.104;2023-08-08T10:10:59;21.40;99.90
46159;DHT22;31888;44.512;26.104;2023-08-08T10:13:24;21.10;99.90
46159;DHT22;31888;44.512;26.104;2023-08-08T10:15:48;20.90;99.90
46159;DHT22;31888;44.512;26.104;2023-08-08T10:18:14;20.90;99.90
46159;DHT22;31888;44.512;26.104;2023-08-08T10:20:38;20.90;99.90
46159;DHT22;31888;44.512;26.104;2023-08-08T10:23:02;20.70;99.90
46159;DHT22;31888;44.512;26.104;2023-08-08T10:25:30;20.70;99.90
46159;DHT22;31888;44.512;26.104;2023-08-08T10:28:05;20.70;99.90
46159;DHT22;31888;44.512;26.104;2023-08-08T10:30:48;20.40;99.90
46159;DHT22;31888;44.512;26.104;2023-08-08T10:33:16;20.20;99.90
46159;DHT22;31888;44.512;26.104;2023-08-08T10:35:40;20.00;99.90
46159;DHT22;31888;44.512;26.104;2023-08-08T10:38:08;20.00;99.90
46159;DHT22;31888;44.512;26.104;2023-08-08T10:40:34;20.20;99.90
46159;DHT22;31888;44.512;26.104;2023-08-08T10:43:00;20.30;99.90
46159;DHT22;31888;44.512;26.104;2023-08-08T10:45:35;20.10;99.90
46159;DHT22;31888;44.512;26.104;2023-08-08T10:48:08;19.80;99.90
46159;DHT22;31888;44.512;26.104;2023-08-08T10:50:32;20.00;99.90
46159;DHT22;31888;44.512;26.104;2023-08-08T10:53:01;20.00;99.90
46159;DHT22;31888;44.512;26.104;2023-08-08T10:55:31;20.30;99.90
46159;DHT22;31888;44.512;26.104;2023-08-08T10:57:58;20.40;99.90
46159;DHT22;31888;44.512;26.104;2023-08-08T11:00:25;20.30;99.90
46159;DHT22;31888;44.512;26.104;2023-08-08T11:02:49;20.10;99.90
46159;DHT22;31888;44.512;26.104;2023-08-08T11:05:14;20.10;99.90
46159;DHT22;31888;44.512;26.104;2023-08-08T11:07:39;20.20;99.90
46159;DHT22;31888;44.512;26.104;2023-08-08T11:10:04;20.20;99.90
46159;DHT22;31888;44.512;26.104;2023-08-08T11:12:27;20.20;99.90
46159;DHT22;31888;44.512;26.104;2023-08-08T11:14:53;20.20;99.90
46159;DHT22;31888;44.512;26.104;2023-08-08T11:17:18;20.20;99.90
46159;DHT22;31888;44.512;26.104;2023-08-08T11:19:42;20.40;99.90
46159;DHT22;31888;44.512;26.104;2023-08-08T11:22:09;20.70;99.70
46159;DHT22;31888;44.512;26.104;2023-08-08T11:24:35;20.90;99.30
46159;DHT22;31888;44.512;26.104;2023-08-08T11:26:59;21.10;99.50
46159;DHT22;31888;44.512;26.104;2023-08-08T11:29:23;21.00;98.60
46159;DHT22;31888;44.512;26.104;2023-08-08T11:31:53;20.70;98.40
46159;DHT22;31888;44.512;26.104;2023-08-08T11:34:18;20.80;98.40
46159;DHT22;31888;44.512;26.104;2023-08-08T11:36:41;20.40;98.50
46159;DHT22;31888;44.512;26.104;2023-08-08T11:39:07;20.20;98.80
46159;DHT22;31888;44.512;26.104;2023-08-08T11:41:32;20.00;99.50
46159;DHT22;31888;44.512;26.104;2023-08-08T11:43:58;20.10;99.80
46159;DHT22;31888;44.512;26.104;2023-08-08T11:46:23;20.30;99.90
46159;DHT22;31888;44.512;26.104;2023-08-08T11:48:49;20.50;99.10
46159;DHT22;31888;44.512;26.104;2023-08-08T11:51:15;20.60;98.30
46159;DHT22;31888;44.512;26.104;2023-08-08T11:53:48;20.60;98.00
46159;DHT22;31888;44.512;26.104;2023-08-08T11:56:13;20.60;97.80
46159;DHT22;31888;44.512;26.104;2023-08-08T11:58:37;20.50;97.70
46159;DHT22;31888;44.512;26.104;2023-08-08T12:01:01;20.50;97.30
46159;DHT22;31888;44.512;26.104;2023-08-08T12:03:25;20.50;97.30
46159;DHT22;31888;44.512;26.104;2023-08-08T12:05:51;20.60;97.50
46159;DHT22;31888;44.512;26.104;2023-08-08T12:08:17;20.70;97.30
46159;DHT22;31888;44.512;26.104;2023-08-08T12:10:48;20.80;96.90
46159;DHT22;31888;44.512;26.104;2023-08-08T12:13:16;20.80;96.80
46159;DHT22;31888;44.512;26.104;2023-08-08T12:15:43;20.80;96.80
46159;DHT22;31888;44.512;26.104;2023-08-08T12:18:12;20.90;96.80
46159;DHT22;31888;44.512;26.104;2023-08-08T12:20:35;20.90;96.40
46159;DHT22;31888;44.512;26.104;2023-08-08T12:23:01;20.70;96.70
46159;DHT22;31888;44.512;26.104;2023-08-08T12:25:25;20.70;96.70
46159;DHT22;31888;44.512;26.104;2023-08-08T12:27:49;20.50;96.90
46159;DHT22;31888;44.512;26.104;2023-08-08T12:30:13;20.70;96.70
46159;DHT22;31888;44.512;26.104;2023-08-08T12:32:37;20.90;96.80
46159;DHT22;31888;44.512;26.104;2023-08-08T12:35:01;21.00;96.70
46159;DHT22;31888;44.512;26.104;2023-08-08T12:37:25;21.00;96.60
46159;DHT22;31888;44.512;26.104;2023-08-08T12:39:50;20.90;95.40
46159;DHT22;31888;44.512;26.104;2023-08-08T12:42:15;20.80;96.10
46159;DHT22;31888;44.512;26.104;2023-08-08T12:44:39;20.90;95.80
46159;DHT22;31888;44.512;26.104;2023-08-08T12:47:03;21.00;96.00
46159;DHT22;31888;44.512;26.104;2023-08-08T12:49:27;21.10;96.00
46159;DHT22;31888;44.512;26.104;2023-08-08T12:51:51;21.10;96.30
46159;DHT22;31888;44.512;26.104;2023-08-08T12:54:15;21.10;96.50
46159;DHT22;31888;44.512;26.104;2023-08-08T12:56:41;21.10;96.50
46159;DHT22;31888;44.512;26.104;2023-08-08T12:59:05;21.30;96.30
46159;DHT22;31888;44.512;26.104;2023-08-08T13:01:29;21.30;96.50
46159;DHT22;31888;44.512;26.104;2023-08-08T13:03:53;21.30;96.10
46159;DHT22;31888;44.512;26.104;2023-08-08T13:06:37;21.20;96.60
46159;DHT22;31888;44.512;26.104;2023-08-08T13:09:00;21.30;96.00
46159;DHT22;31888;44.512;26.104;2023-08-08T13:11:26;21.20;95.70
46159;DHT22;31888;44.512;26.104;2023-08-08T13:13:51;21.20;95.80
46159;DHT22;31888;44.512;26.104;2023-08-08T13:16:15;21.10;95.90
46159;DHT22;31888;44.512;26.104;2023-08-08T13:18:39;21.20;96.10
46159;DHT22;31888;44.512;26.104;2023-08-08T13:21:03;21.40;95.70
46159;DHT22;31888;44.512;26.104;2023-08-08T13:23:28;21.40;95.20
46159;DHT22;31888;44.512;26.104;2023-08-08T13:25:52;21.50;95.30
46159;DHT22;31888;44.512;26.104;2023-08-08T13:28:16;21.40;95.40
46159;DHT22;31888;44.512;26.104;2023-08-08T13:30:41;21.50;95.80
46159;DHT22;31888;44.512;26.104;2023-08-08T13:33:06;21.50;95.80
46159;DHT22;31888;44.512;26.104;2023-08-08T13:35:29;21.40;96.40
46159;DHT22;31888;44.512;26.104;2023-08-08T13:37:53;21.60;96.00
46159;DHT22;31888;44.512;26.104;2023-08-08T13:40:17;21.60;95.40
46159;DHT22;31888;44.512;26.104;2023-08-08T13:42:41;21.60;95.10
46159;DHT22;31888;44.512;26.104;2023-08-08T13:45:10;21.40;95.30
46159;DHT22;31888;44.512;26.104;2023-08-08T13:47:35;21.20;95.20
46159;DHT22;31888;44.512;26.104;2023-08-08T13:49:59;21.20;95.50
46159;DHT22;31888;44.512;26.104;2023-08-08T13:52:23;21.20;95.20
46159;DHT22;31888;44.512;26.104;2023-08-08T13:54:47;21.30;95.40
46159;DHT22;31888;44.512;26.104;2023-08-08T13:57:11;21.30;95.20
46159;DHT22;31888;44.512;26.104;2023-08-08T13:59:38;21.40;94.90
46159;DHT22;31888;44.512;26.104;2023-08-08T14:02:02;21.40;94.60
46159;DHT22;31888;44.512;26.104;2023-08-08T14:04:28;21.50;94.60
46159;DHT22;31888;44.512;26.104;2023-08-08T14:06:51;21.40;94.60
46159;DHT22;31888;44.512;26.104;2023-08-08T14:09:17;21.40;94.90
46159;DHT22;31888;44.512;26.104;2023-08-08T14:11:41;21.50;94.70
46159;DHT22;31888;44.512;26.104;2023-08-08T14:14:05;21.60;94.50
46159;DHT22;31888;44.512;26.104;2023-08-08T14:16:29;21.60;93.50
46159;DHT22;31888;44.512;26.104;2023-08-08T14:18:53;21.60;93.40
46159;DHT22;31888;44.512;26.104;2023-08-08T14:21:18;21.70;93.80
46159;DHT22;31888;44.512;26.104;2023-08-08T14:23:42;21.60;93.60
46159;DHT22;31888;44.512;26.104;2023-08-08T14:26:06;21.70;93.90
46159;DHT22;31888;44.512;26.104;2023-08-08T14:28:30;21.60;93.50
46159;DHT22;31888;44.512;26.104;2023-08-08T14:30:54;21.70;93.90
46159;DHT22;31888;44.512;26.104;2023-08-08T14:33:18;21.70;93.90
46159;DHT22;31888;44.512;26.104;2023-08-08T14:35:42;21.70;93.80
46159;DHT22;31888;44.512;26.104;2023-08-08T14:38:08;21.70;93.40
46159;DHT22;31888;44.512;26.104;2023-08-08T14:40:33;21.70;93.30
46159;DHT22;31888;44.512;26.104;2023-08-08T14:42:59;21.80;92.90
46159;DHT22;31888;44.512;26.104;2023-08-08T14:45:23;21.80;93.00
46159;DHT22;31888;44.512;26.104;2023-08-08T14:47:47;21.80;93.30
46159;DHT22;31888;44.512;26.104;2023-08-08T14:50:11;21.90;92.80
46159;DHT22;31888;44.512;26.104;2023-08-08T14:52:35;22.00;92.90
46159;DHT22;31888;44.512;26.104;2023-08-08T14:55:01;21.90;92.40
46159;DHT22;31888;44.512;26.104;2023-08-08T14:57:25;21.90;92.40
46159;DHT22;31888;44.512;26.104;2023-08-08T14:59:48;21.90;92.50